createdAt,value
2022-10-20T00:03:57.405Z,8.97
2022-10-20T00:09:00.980Z,8.73
2022-10-20T00:14:03.214Z,8.80
2022-10-20T00:19:04.973Z,8.66
2022-10-20T00:24:06.538Z,8.68
2022-10-20T00:29:08.199Z,8.76
2022-10-20T00:34:10.147Z,8.70
2022-10-20T00:39:11.625Z,8.72
2022-10-20T00:44:49.848Z,8.84
2022-10-20T00:49:51.591Z,8.57
2022-10-20T00:54:53.152Z,8.63
2022-10-20T00:59:54.654Z,8.46
2022-10-20T01:04:56.143Z,8.62
2022-10-20T01:09:57.888Z,8.74
2022-10-20T01:15:14.786Z,8.71
2022-10-20T01:20:38.009Z,8.70
2022-10-20T01:26:18.855Z,8.58
2022-10-20T01:31:38.542Z,8.64
2022-10-20T01:36:47.738Z,8.62
2022-10-20T01:42:04.767Z,8.46
2022-10-20T01:47:07.520Z,8.44
2022-10-20T01:52:11.375Z,8.50
2022-10-20T01:57:28.233Z,8.41
2022-10-20T02:02:49.336Z,8.72
2022-10-20T02:07:50.928Z,8.40
2022-10-20T02:12:56.875Z,8.41
2022-10-20T02:18:04.186Z,8.61
2022-10-20T02:23:06.564Z,8.55
2022-10-20T02:28:10.856Z,8.22
2022-10-20T02:33:12.873Z,8.44
2022-10-20T02:38:14.443Z,8.37
2022-10-20T02:43:16.074Z,8.14
2022-10-20T02:48:17.627Z,7.98
2022-10-20T02:53:19.140Z,8.26
2022-10-20T02:58:20.645Z,8.17
2022-10-20T03:03:22.174Z,7.88
2022-10-20T03:08:23.678Z,8.12
2022-10-20T03:13:25.234Z,7.96
2022-10-20T03:18:26.788Z,8.13
2022-10-20T03:23:28.278Z,7.96
2022-10-20T03:28:29.784Z,7.54
2022-10-20T03:33:31.284Z,7.70
2022-10-20T03:38:32.826Z,7.86
2022-10-20T03:43:34.347Z,7.44
2022-10-20T03:48:36.798Z,7.17
2022-10-20T03:53:38.305Z,7.19
2022-10-20T03:58:39.850Z,6.95
2022-10-20T04:03:41.782Z,6.81
2022-10-20T04:08:43.380Z,6.66
2022-10-20T04:13:44.887Z,6.47
2022-10-20T04:18:46.363Z,6.68
2022-10-20T04:23:48.008Z,6.65
2022-10-20T04:28:49.583Z,7.19
2022-10-20T04:33:51.109Z,7.17
2022-10-20T04:38:52.613Z,6.82
2022-10-20T04:43:54.134Z,6.76
2022-10-20T04:48:55.635Z,6.61
2022-10-20T04:53:57.185Z,7.01
2022-10-20T04:58:59.228Z,6.79
2022-10-20T05:04:00.882Z,6.71
2022-10-20T05:09:04.310Z,6.91
2022-10-20T05:14:05.981Z,6.81
2022-10-20T05:19:07.506Z,7.07
2022-10-20T05:24:16.729Z,6.51
2022-10-20T05:29:21.533Z,6.63
2022-10-20T05:34:23.059Z,6.57
2022-10-20T05:39:24.552Z,6.85
2022-10-20T05:44:26.059Z,6.89
2022-10-20T05:49:27.635Z,6.94
2022-10-20T05:54:29.133Z,7.14
2022-10-20T05:59:32.282Z,7.38
2022-10-20T06:04:33.818Z,7.42
2022-10-20T06:09:36.069Z,7.77
2022-10-20T06:14:37.590Z,7.95
2022-10-20T06:19:39.085Z,8.24
2022-10-20T06:24:40.588Z,8.63
2022-10-20T06:29:42.074Z,8.88
2022-10-20T06:34:43.696Z,9.05
2022-10-20T06:39:45.176Z,9.13
2022-10-20T06:44:46.659Z,9.29
2022-10-20T06:49:48.771Z,9.49
2022-10-20T06:54:50.267Z,9.60
2022-10-20T06:59:51.768Z,9.72
2022-10-20T07:04:53.239Z,9.85
2022-10-20T07:09:54.717Z,10.00
2022-10-20T07:14:56.234Z,10.08
2022-10-20T07:19:57.924Z,10.16
2022-10-20T07:25:02.047Z,10.27
2022-10-20T07:30:04.198Z,10.38
2022-10-20T07:35:06.186Z,10.44
2022-10-20T07:40:08.156Z,10.59
2022-10-20T07:45:09.799Z,10.67
2022-10-20T07:50:12.912Z,10.63
2022-10-20T07:55:36.629Z,10.73
2022-10-20T08:00:35.960Z,10.83
2022-10-20T08:05:37.538Z,10.88
2022-10-20T08:10:39.034Z,10.96
2022-10-20T08:21:09.659Z,11.05
2022-10-20T08:26:12.437Z,11.05
2022-10-20T08:31:14.029Z,11.11
2022-10-20T08:36:15.672Z,11.21
2022-10-20T08:41:21.292Z,11.26
2022-10-20T08:46:30.576Z,11.31
2022-10-20T08:51:34.314Z,11.33
2022-10-20T08:56:35.830Z,11.44
2022-10-20T09:01:37.622Z,11.44
2022-10-20T09:06:41.952Z,11.48
2022-10-20T09:11:44.390Z,11.54
2022-10-20T09:16:59.708Z,11.62
2022-10-20T09:22:06.053Z,11.64
2022-10-20T09:27:23.814Z,11.72
2022-10-20T09:32:50.902Z,11.74
2022-10-20T09:37:52.398Z,11.78
2022-10-20T09:42:56.806Z,11.83
2022-10-20T09:48:18.284Z,11.83
2022-10-20T09:53:22.231Z,11.93
2022-10-20T09:58:29.490Z,11.94
2022-10-20T10:03:45.098Z,12.04
2022-10-20T10:08:47.389Z,12.04
2022-10-20T10:13:51.027Z,12.13
2022-10-20T10:19:01.739Z,12.23
2022-10-20T10:24:04.453Z,12.26
2022-10-20T10:29:06.014Z,12.30
2022-10-20T10:34:13.243Z,12.32
2022-10-20T10:39:15.922Z,12.41
2022-10-20T10:44:43.696Z,12.43
2022-10-20T10:49:54.409Z,12.53
2022-10-20T10:55:30.528Z,12.55
2022-10-20T11:01:07.184Z,12.58
2022-10-20T11:06:20.024Z,12.60
2022-10-20T11:11:30.807Z,12.65
2022-10-20T11:16:51.923Z,12.69
2022-10-20T11:21:59.167Z,12.73
2022-10-20T11:27:04.501Z,12.71
2022-10-20T11:32:16.431Z,12.77
2022-10-20T11:37:17.810Z,12.79
2022-10-20T11:42:32.446Z,12.82
2022-10-20T11:47:39.179Z,12.89
2022-10-20T11:53:13.458Z,12.89
2022-10-20T11:58:32.586Z,13.02
2022-10-20T12:03:41.712Z,13.03
2022-10-20T12:08:52.599Z,13.12
2022-10-20T12:14:07.184Z,13.14
2022-10-20T12:19:21.779Z,13.15
2022-10-20T12:24:37.858Z,13.22
2022-10-20T12:29:42.054Z,13.20
2022-10-20T12:34:43.609Z,13.24
2022-10-20T12:39:46.013Z,13.26
2022-10-20T12:44:47.714Z,13.26
2022-10-20T12:49:56.700Z,13.30
2022-10-20T12:55:19.399Z,13.30
2022-10-20T13:00:23.613Z,13.31
2022-10-20T13:05:27.516Z,13.33
2022-10-20T13:10:31.874Z,13.34
2022-10-20T13:15:37.007Z,13.38
2022-10-20T13:20:59.473Z,13.35
2022-10-20T13:26:30.376Z,13.42
2022-10-20T13:31:34.309Z,13.41
2022-10-20T13:36:57.038Z,13.44
2022-10-20T13:42:17.087Z,13.42
2022-10-20T13:47:34.942Z,13.38
2022-10-20T13:52:41.286Z,13.38
2022-10-20T13:57:55.540Z,13.42
2022-10-20T14:03:14.478Z,13.42
2022-10-20T14:08:21.196Z,13.37
2022-10-20T14:13:27.359Z,13.41
2022-10-20T14:18:32.613Z,13.40
2022-10-20T14:23:38.601Z,13.40
2022-10-20T14:28:42.005Z,13.36
2022-10-20T14:33:45.180Z,13.40
2022-10-20T14:38:48.650Z,13.36
2022-10-20T14:43:53.081Z,13.32
2022-10-20T14:48:54.634Z,13.33
2022-10-20T14:54:28.111Z,13.25
2022-10-20T14:59:32.921Z,13.22
2022-10-20T15:04:36.393Z,13.18
2022-10-20T15:09:41.442Z,13.13
2022-10-20T15:14:46.790Z,13.09
2022-10-20T15:19:48.324Z,13.05
2022-10-20T15:24:49.961Z,13.06
2022-10-20T15:29:51.791Z,13.03
2022-10-20T15:34:53.267Z,12.93
2022-10-20T15:39:54.771Z,12.93
2022-10-20T15:44:56.242Z,12.87
2022-10-20T15:49:57.912Z,12.79
2022-10-20T15:54:59.449Z,12.76
2022-10-20T16:00:00.993Z,12.73
2022-10-20T16:05:02.562Z,12.68
2022-10-20T16:10:06.095Z,12.62
2022-10-20T16:15:08.886Z,12.61
2022-10-20T16:20:10.831Z,12.57
2022-10-20T16:25:12.389Z,12.51
2022-10-20T16:30:14.063Z,12.46
2022-10-20T16:35:15.659Z,12.41
2022-10-20T16:40:17.288Z,12.39
2022-10-20T16:45:18.830Z,12.47
2022-10-20T16:50:20.413Z,12.36
2022-10-20T16:55:21.958Z,12.42
2022-10-20T17:00:23.464Z,12.38
2022-10-20T17:05:26.584Z,12.34
2022-10-20T17:10:28.378Z,12.34
2022-10-20T17:15:29.932Z,12.31
2022-10-20T17:20:31.415Z,12.29
2022-10-20T17:25:32.927Z,12.31
2022-10-20T17:30:34.477Z,12.21
2022-10-20T17:35:36.105Z,12.28
2022-10-20T17:40:38.263Z,12.25
2022-10-20T17:45:39.788Z,12.24
2022-10-20T17:50:41.287Z,12.30
2022-10-20T17:55:42.797Z,12.21
2022-10-20T18:00:56.216Z,12.22
2022-10-20T18:05:58.501Z,12.20
2022-10-20T18:10:59.999Z,12.20
2022-10-20T18:16:04.927Z,12.23
2022-10-20T18:21:08.425Z,12.21
2022-10-20T18:26:12.767Z,12.21
2022-10-20T18:31:21.035Z,12.21
2022-10-20T18:36:23.135Z,12.22
2022-10-20T18:41:26.792Z,12.21
2022-10-20T18:46:31.551Z,12.23
2022-10-20T18:51:33.560Z,12.15
2022-10-20T18:56:35.762Z,12.35
2022-10-20T19:01:38.698Z,12.26
2022-10-20T19:06:43.070Z,12.27
2022-10-20T19:11:45.686Z,12.21
2022-10-20T19:16:48.636Z,12.26
2022-10-20T19:21:50.131Z,12.28
2022-10-20T19:27:24.540Z,12.26
2022-10-20T19:32:17.297Z,12.22
2022-10-20T19:37:18.810Z,12.23
2022-10-20T19:42:20.352Z,12.28
2022-10-20T19:47:21.986Z,12.24
2022-10-20T19:52:23.497Z,12.25
2022-10-20T19:57:25.137Z,12.22
2022-10-20T20:02:26.660Z,12.27
2022-10-20T20:07:28.185Z,12.19
2022-10-20T20:12:29.773Z,12.08
2022-10-20T20:17:31.264Z,12.22
2022-10-20T20:22:32.751Z,12.21
2022-10-20T20:27:34.315Z,12.19
2022-10-20T20:32:37.129Z,12.23
2022-10-20T20:37:39.119Z,12.21
2022-10-20T20:42:40.886Z,12.21
2022-10-20T20:47:43.174Z,12.18
2022-10-20T20:52:44.717Z,12.23
2022-10-20T20:57:46.217Z,12.26
2022-10-20T21:02:47.755Z,12.23
2022-10-20T21:07:49.275Z,12.19
2022-10-20T21:12:50.752Z,12.26
2022-10-20T21:17:52.268Z,12.24
2022-10-20T21:22:53.827Z,12.24
2022-10-20T21:27:55.412Z,12.23
2022-10-20T21:32:56.960Z,12.28
2022-10-20T21:37:58.448Z,12.30
2022-10-20T21:42:59.969Z,12.26
2022-10-20T21:48:01.563Z,12.36
2022-10-20T21:53:03.069Z,12.40
2022-10-20T21:58:04.590Z,12.43
2022-10-20T22:03:06.091Z,12.40
2022-10-20T22:08:07.635Z,12.43
2022-10-20T22:13:09.325Z,12.45
2022-10-20T22:18:10.818Z,12.43
2022-10-20T22:23:12.445Z,12.48
2022-10-20T22:28:13.947Z,12.52
2022-10-20T22:33:15.467Z,12.48
2022-10-20T22:38:17.042Z,12.52
2022-10-20T22:43:18.526Z,12.52
2022-10-20T22:48:20.173Z,12.53
2022-10-20T22:53:21.787Z,12.54
2022-10-20T22:58:23.400Z,12.52
2022-10-20T23:03:25.002Z,12.50
2022-10-20T23:08:29.415Z,12.45
2022-10-20T23:13:33.522Z,12.48
2022-10-20T23:18:35.054Z,12.58
2022-10-20T23:23:37.410Z,12.55
2022-10-20T23:28:38.984Z,12.53
2022-10-20T23:33:41.809Z,12.53
2022-10-20T23:38:43.636Z,12.57
2022-10-20T23:43:45.200Z,12.46
2022-10-20T23:48:46.808Z,12.51
2022-10-20T23:53:48.307Z,12.55
2022-10-20T23:58:49.893Z,12.47
